sensor_id;sensor_type;location;lat;lon;timestamp;pressure;altitude;pressure_sealevel;temperature
69186;BMP280;56298;49.246;9.410;2024-01-30T00:01:05;100827.38;;;0.92
69186;BMP280;56298;49.246;9.410;2024-01-30T00:03:31;100825.75;;;0.91
69186;BMP280;56298;49.246;9.410;2024-01-30T00:05:56;100830.91;;;0.93
69186;BMP280;56298;49.246;9.410;2024-01-30T00:08:21;100815.84;;;0.97
69186;BMP280;56298;49.246;9.410;2024-01-30T00:10:46;100827.13;;;0.94
69186;BMP280;56298;49.246;9.410;2024-01-30T00:13:12;100813.22;;;0.85
69186;BMP280;56298;49.246;9.410;2024-01-30T00:15:39;100814.78;;;0.81
69186;BMP280;56298;49.246;9.410;2024-01-30T00:18:04;100819.50;;;0.74
69186;BMP280;56298;49.246;9.410;2024-01-30T00:20:29;100822.03;;;0.63
69186;BMP280;56298;49.246;9.410;2024-01-30T00:22:54;100822.44;;;0.55
69186;BMP280;56298;49.246;9.410;2024-01-30T00:25:20;100824.50;;;0.48
69186;BMP280;56298;49.246;9.410;2024-01-30T00:27:45;100827.09;;;0.43
69186;BMP280;56298;49.246;9.410;2024-01-30T00:30:11;100829.22;;;0.41
69186;BMP280;56298;49.246;9.410;2024-01-30T00:32:36;100818.88;;;0.37
69186;BMP280;56298;49.246;9.410;2024-01-30T00:35:01;100818.31;;;0.35
69186;BMP280;56298;49.246;9.410;2024-01-30T00:37:27;100826.75;;;0.39
69186;BMP280;56298;49.246;9.410;2024-01-30T00:39:52;100825.13;;;0.38
69186;BMP280;56298;49.246;9.410;2024-01-30T00:42:17;100824.88;;;0.39
69186;BMP280;56298;49.246;9.410;2024-01-30T00:44:43;100825.44;;;0.42
69186;BMP280;56298;49.246;9.410;2024-01-30T00:47:08;100818.41;;;0.41
69186;BMP280;56298;49.246;9.410;2024-01-30T00:49:33;100820.28;;;0.40
69186;BMP280;56298;49.246;9.410;2024-01-30T00:51:59;100819.66;;;0.33
69186;BMP280;56298;49.246;9.410;2024-01-30T00:54:25;100820.97;;;0.30
69186;BMP280;56298;49.246;9.410;2024-01-30T00:56:50;100819.81;;;0.26
69186;BMP280;56298;49.246;9.410;2024-01-30T00:59:15;100813.09;;;0.29
69186;BMP280;56298;49.246;9.410;2024-01-30T01:01:40;100827.44;;;0.29
69186;BMP280;56298;49.246;9.410;2024-01-30T01:04:06;100823.56;;;0.25
69186;BMP280;56298;49.246;9.410;2024-01-30T01:09:08;100826.41;;;0.18
69186;BMP280;56298;49.246;9.410;2024-01-30T01:11:33;100832.53;;;0.13
69186;BMP280;56298;49.246;9.410;2024-01-30T01:13:59;100818.56;;;0.17
69186;BMP280;56298;49.246;9.410;2024-01-30T01:16:24;100827.47;;;0.17
69186;BMP280;56298;49.246;9.410;2024-01-30T01:18:49;100827.72;;;0.16
69186;BMP280;56298;49.246;9.410;2024-01-30T01:21:14;100824.88;;;0.22
69186;BMP280;56298;49.246;9.410;2024-01-30T01:23:40;100824.63;;;0.24
69186;BMP280;56298;49.246;9.410;2024-01-30T01:26:05;100830.28;;;0.22
69186;BMP280;56298;49.246;9.410;2024-01-30T01:28:30;100830.75;;;0.19
69186;BMP280;56298;49.246;9.410;2024-01-30T01:30:55;100830.19;;;0.17
69186;BMP280;56298;49.246;9.410;2024-01-30T01:33:24;100830.28;;;0.22
69186;BMP280;56298;49.246;9.410;2024-01-30T01:35:49;100834.69;;;0.29
69186;BMP280;56298;49.246;9.410;2024-01-30T01:38:15;100835.03;;;0.32
69186;BMP280;56298;49.246;9.410;2024-01-30T01:40:40;100834.03;;;0.21
69186;BMP280;56298;49.246;9.410;2024-01-30T01:43:06;100837.78;;;0.20
69186;BMP280;56298;49.246;9.410;2024-01-30T01:45:31;100828.88;;;0.20
69186;BMP280;56298;49.246;9.410;2024-01-30T01:47:56;100830.50;;;0.21
69186;BMP280;56298;49.246;9.410;2024-01-30T01:50:22;100834.69;;;0.29
69186;BMP280;56298;49.246;9.410;2024-01-30T01:52:48;100837.16;;;0.30
69186;BMP280;56298;49.246;9.410;2024-01-30T01:55:15;100833.44;;;0.19
69186;BMP280;56298;49.246;9.410;2024-01-30T01:57:44;100834.59;;;0.23
69186;BMP280;56298;49.246;9.410;2024-01-30T02:00:10;100832.03;;;0.17
69186;BMP280;56298;49.246;9.410;2024-01-30T02:02:36;100827.97;;;0.14
69186;BMP280;56298;49.246;9.410;2024-01-30T02:05:02;100829.81;;;0.13
69186;BMP280;56298;49.246;9.410;2024-01-30T02:07:28;100833.16;;;0.04
69186;BMP280;56298;49.246;9.410;2024-01-30T02:09:54;100828.56;;;0.04
69186;BMP280;56298;49.246;9.410;2024-01-30T02:12:19;100824.50;;;0.19
69186;BMP280;56298;49.246;9.410;2024-01-30T02:14:45;100825.06;;;0.33
69186;BMP280;56298;49.246;9.410;2024-01-30T02:17:11;100821.69;;;0.25
69186;BMP280;56298;49.246;9.410;2024-01-30T02:19:37;100824.28;;;0.20
69186;BMP280;56298;49.246;9.410;2024-01-30T02:22:02;100819.03;;;0.13
69186;BMP280;56298;49.246;9.410;2024-01-30T02:24:28;100815.91;;;0.05
69186;BMP280;56298;49.246;9.410;2024-01-30T02:26:53;100827.06;;;-0.04
69186;BMP280;56298;49.246;9.410;2024-01-30T02:29:18;100827.16;;;0.02
69186;BMP280;56298;49.246;9.410;2024-01-30T02:31:43;100833.63;;;0.01
69186;BMP280;56298;49.246;9.410;2024-01-30T02:34:11;100830.50;;;-0.08
69186;BMP280;56298;49.246;9.410;2024-01-30T02:36:36;100829.53;;;-0.02
69186;BMP280;56298;49.246;9.410;2024-01-30T02:39:01;100823.06;;;-0.01
69186;BMP280;56298;49.246;9.410;2024-01-30T02:41:26;100828.88;;;-0.09
69186;BMP280;56298;49.246;9.410;2024-01-30T02:43:52;100818.97;;;-0.04
69186;BMP280;56298;49.246;9.410;2024-01-30T02:46:17;100817.59;;;-0.06
69186;BMP280;56298;49.246;9.410;2024-01-30T02:48:42;100821.91;;;-0.05
69186;BMP280;56298;49.246;9.410;2024-01-30T02:51:07;100823.22;;;-0.08
69186;BMP280;56298;49.246;9.410;2024-01-30T02:53:33;100821.91;;;-0.05
69186;BMP280;56298;49.246;9.410;2024-01-30T02:55:58;100825.22;;;-0.03
69186;BMP280;56298;49.246;9.410;2024-01-30T02:58:23;100825.53;;;0.01
69186;BMP280;56298;49.246;9.410;2024-01-30T03:00:48;100825.78;;;-0.01
69186;BMP280;56298;49.246;9.410;2024-01-30T03:03:14;100824.59;;;-0.05
69186;BMP280;56298;49.246;9.410;2024-01-30T03:05:39;100821.59;;;-0.09
69186;BMP280;56298;49.246;9.410;2024-01-30T03:08:04;100817.03;;;-0.08
69186;BMP280;56298;49.246;9.410;2024-01-30T03:10:30;100815.84;;;-0.12
69186;BMP280;56298;49.246;9.410;2024-01-30T03:12:55;100810.47;;;-0.12
69186;BMP280;56298;49.246;9.410;2024-01-30T03:15:20;100814.47;;;-0.15
69186;BMP280;56298;49.246;9.410;2024-01-30T03:17:46;100815.75;;;-0.18
69186;BMP280;56298;49.246;9.410;2024-01-30T03:20:11;100814.47;;;-0.15
69186;BMP280;56298;49.246;9.410;2024-01-30T03:22:36;100817.91;;;-0.03
69186;BMP280;56298;49.246;9.410;2024-01-30T03:25:02;100813.72;;;-0.10
69186;BMP280;56298;49.246;9.410;2024-01-30T03:27:27;100818.69;;;-0.19
69186;BMP280;56298;49.246;9.410;2024-01-30T03:29:52;100822.69;;;-0.22
69186;BMP280;56298;49.246;9.410;2024-01-30T03:32:17;100819.97;;;-0.34
69186;BMP280;56298;49.246;9.410;2024-01-30T03:34:43;100825.97;;;-0.32
69186;BMP280;56298;49.246;9.410;2024-01-30T03:37:08;100815.78;;;-0.30
69186;BMP280;56298;49.246;9.410;2024-01-30T03:39:33;100823.00;;;-0.18
69186;BMP280;56298;49.246;9.410;2024-01-30T03:41:58;100824.19;;;-0.14
69186;BMP280;56298;49.246;9.410;2024-01-30T03:44:24;100829.47;;;-0.19
69186;BMP280;56298;49.246;9.410;2024-01-30T03:46:49;100828.88;;;-0.21
69186;BMP280;56298;49.246;9.410;2024-01-30T03:49:15;100827.59;;;-0.19
69186;BMP280;56298;49.246;9.410;2024-01-30T03:51:40;100824.78;;;-0.24
69186;BMP280;56298;49.246;9.410;2024-01-30T03:54:05;100819.66;;;-0.25
69186;BMP280;56298;49.246;9.410;2024-01-30T03:56:30;100827.00;;;-0.21
69186;BMP280;56298;49.246;9.410;2024-01-30T03:58:56;100821.72;;;-0.16
69186;BMP280;56298;49.246;9.410;2024-01-30T04:01:22;100820.91;;;-0.16
69186;BMP280;56298;49.246;9.410;2024-01-30T04:03:47;100823.47;;;-0.09
69186;BMP280;56298;49.246;9.410;2024-01-30T04:06:12;100823.47;;;-0.09
69186;BMP280;56298;49.246;9.410;2024-01-30T04:08:37;100821.44;;;-0.02
69186;BMP280;56298;49.246;9.410;2024-01-30T04:11:04;100824.28;;;-0.09
69186;BMP280;56298;49.246;9.410;2024-01-30T04:13:31;100821.06;;;0.06
69186;BMP280;56298;49.246;9.410;2024-01-30T04:15:56;100825.63;;;0.06
69186;BMP280;56298;49.246;9.410;2024-01-30T04:18:21;100828.00;;;0.02
69186;BMP280;56298;49.246;9.410;2024-01-30T04:20:46;100825.81;;;-0.13
69186;BMP280;56298;49.246;9.410;2024-01-30T04:23:11;100823.34;;;-0.15
69186;BMP280;56298;49.246;9.410;2024-01-30T04:25:37;100827.34;;;-0.17
69186;BMP280;56298;49.246;9.410;2024-01-30T04:28:02;100825.28;;;-0.27
69186;BMP280;56298;49.246;9.410;2024-01-30T04:30:29;100826.44;;;-0.35
69186;BMP280;56298;49.246;9.410;2024-01-30T04:32:54;100829.94;;;-0.34
69186;BMP280;56298;49.246;9.410;2024-01-30T04:35:20;100819.66;;;-0.37
69186;BMP280;56298;49.246;9.410;2024-01-30T04:37:48;100822.56;;;-0.39
69186;BMP280;56298;49.246;9.410;2024-01-30T04:40:13;100830.75;;;-0.34
69186;BMP280;56298;49.246;9.410;2024-01-30T04:42:39;100826.91;;;-0.26
69186;BMP280;56298;49.246;9.410;2024-01-30T04:45:05;100829.94;;;-0.34
69186;BMP280;56298;49.246;9.410;2024-01-30T04:47:30;100833.00;;;-0.31
69186;BMP280;56298;49.246;9.410;2024-01-30T04:49:56;100825.28;;;-0.39
69186;BMP280;56298;49.246;9.410;2024-01-30T04:52:21;100822.47;;;-0.32
69186;BMP280;56298;49.246;9.410;2024-01-30T04:54:46;100826.56;;;-0.30
69186;BMP280;56298;49.246;9.410;2024-01-30T04:57:11;100826.31;;;-0.16
69186;BMP280;56298;49.246;9.410;2024-01-30T04:59:37;100826.41;;;-0.11
69186;BMP280;56298;49.246;9.410;2024-01-30T05:02:02;100832.03;;;-0.12
69186;BMP280;56298;49.246;9.410;2024-01-30T05:04:28;100826.69;;;-0.24
69186;BMP280;56298;49.246;9.410;2024-01-30T05:06:53;100827.88;;;-0.32
69186;BMP280;56298;49.246;9.410;2024-01-30T05:09:18;100831.72;;;-0.28
69186;BMP280;56298;49.246;9.410;2024-01-30T05:11:44;100841.53;;;-0.34
69186;BMP280;56298;49.246;9.410;2024-01-30T05:14:09;100834.16;;;-0.38
69186;BMP280;56298;49.246;9.410;2024-01-30T05:16:36;100835.13;;;-0.33
69186;BMP280;56298;49.246;9.410;2024-01-30T05:19:01;100834.75;;;-0.24
69186;BMP280;56298;49.246;9.410;2024-01-30T05:21:26;100833.34;;;-0.39
69186;BMP280;56298;49.246;9.410;2024-01-30T05:23:51;100833.81;;;-0.42
69186;BMP280;56298;49.246;9.410;2024-01-30T05:26:17;100840.59;;;-0.40
69186;BMP280;56298;49.246;9.410;2024-01-30T05:28:42;100842.97;;;-0.31
69186;BMP280;56298;49.246;9.410;2024-01-30T05:31:09;100834.66;;;-0.30
69186;BMP280;56298;49.246;9.410;2024-01-30T05:33:35;100832.06;;;-0.24
69186;BMP280;56298;49.246;9.410;2024-01-30T05:36:00;100839.91;;;-0.35
69186;BMP280;56298;49.246;9.410;2024-01-30T05:38:25;100834.28;;;-0.45
69186;BMP280;56298;49.246;9.410;2024-01-30T05:40:50;100840.16;;;-0.48
69186;BMP280;56298;49.246;9.410;2024-01-30T05:43:16;100831.59;;;-0.45
69186;BMP280;56298;49.246;9.410;2024-01-30T05:45:41;100838.25;;;-0.36
69186;BMP280;56298;49.246;9.410;2024-01-30T05:48:06;100842.16;;;-0.32
69186;BMP280;56298;49.246;9.410;2024-01-30T05:50:31;100842.16;;;-0.32
69186;BMP280;56298;49.246;9.410;2024-01-30T05:52:57;100833.94;;;-0.37
69186;BMP280;56298;49.246;9.410;2024-01-30T05:55:22;100846.22;;;-0.41
69186;BMP280;56298;49.246;9.410;2024-01-30T05:57:47;100844.50;;;-0.47
69186;BMP280;56298;49.246;9.410;2024-01-30T06:00:13;100848.25;;;-0.48
69186;BMP280;56298;49.246;9.410;2024-01-30T06:02:38;100845.69;;;-0.55
69186;BMP280;56298;49.246;9.410;2024-01-30T06:05:04;100846.63;;;-0.49
69186;BMP280;56298;49.246;9.410;2024-01-30T06:07:29;100846.34;;;-0.48
69186;BMP280;56298;49.246;9.410;2024-01-30T06:09:54;100851.16;;;-0.38
69186;BMP280;56298;49.246;9.410;2024-01-30T06:12:19;100848.00;;;-0.35
69186;BMP280;56298;49.246;9.410;2024-01-30T06:14:46;100855.16;;;-0.29
69186;BMP280;56298;49.246;9.410;2024-01-30T06:17:11;100848.00;;;-0.35
69186;BMP280;56298;49.246;9.410;2024-01-30T06:19:40;100845.50;;;-0.12
69186;BMP280;56298;49.246;9.410;2024-01-30T06:22:06;100848.13;;;-0.30
69186;BMP280;56298;49.246;9.410;2024-01-30T06:24:31;100852.31;;;-0.34
69186;BMP280;56298;49.246;9.410;2024-01-30T06:26:56;100848.94;;;-0.29
69186;BMP280;56298;49.246;9.410;2024-01-30T06:29:22;100853.75;;;-0.31
69186;BMP280;56298;49.246;9.410;2024-01-30T06:31:49;100862.88;;;-0.20
69186;BMP280;56298;49.246;9.410;2024-01-30T06:34:15;100863.91;;;-0.09
69186;BMP280;56298;49.246;9.410;2024-01-30T06:36:40;100865.34;;;-0.19
69186;BMP280;56298;49.246;9.410;2024-01-30T06:39:06;100859.00;;;-0.12
69186;BMP280;56298;49.246;9.410;2024-01-30T06:41:32;100854.19;;;-0.22
69186;BMP280;56298;49.246;9.410;2024-01-30T06:43:57;100853.13;;;-0.21
69186;BMP280;56298;49.246;9.410;2024-01-30T06:46:22;100845.78;;;-0.26
69186;BMP280;56298;49.246;9.410;2024-01-30T06:48:47;100857.97;;;-0.23
69186;BMP280;56298;49.246;9.410;2024-01-30T06:51:13;100855.25;;;-0.23
69186;BMP280;56298;49.246;9.410;2024-01-30T06:53:38;100852.69;;;-0.30
69186;BMP280;56298;49.246;9.410;2024-01-30T06:56:04;100859.59;;;-0.34
69186;BMP280;56298;49.246;9.410;2024-01-30T06:58:29;100855.03;;;-0.46
69186;BMP280;56298;49.246;9.410;2024-01-30T07:00:55;100857.59;;;-0.39
69186;BMP280;56298;49.246;9.410;2024-01-30T07:03:20;100862.16;;;-0.40
69186;BMP280;56298;49.246;9.410;2024-01-30T07:05:46;100865.09;;;-0.41
69186;BMP280;56298;49.246;9.410;2024-01-30T07:08:11;100867.09;;;-0.36
69186;BMP280;56298;49.246;9.410;2024-01-30T07:10:37;100869.09;;;-0.32
69186;BMP280;56298;49.246;9.410;2024-01-30T07:13:02;100870.84;;;-0.37
69186;BMP280;56298;49.246;9.410;2024-01-30T07:15:31;100869.56;;;-0.47
69186;BMP280;56298;49.246;9.410;2024-01-30T07:17:57;100868.84;;;-0.42
69186;BMP280;56298;49.246;9.410;2024-01-30T07:20:22;100874.84;;;-0.40
69186;BMP280;56298;49.246;9.410;2024-01-30T07:22:47;100869.19;;;-0.38
69186;BMP280;56298;49.246;9.410;2024-01-30T07:25:13;100866.88;;;-0.35
69186;BMP280;56298;49.246;9.410;2024-01-30T07:27:38;100864.41;;;-0.24
69186;BMP280;56298;49.246;9.410;2024-01-30T07:30:04;100871.50;;;-0.06
69186;BMP280;56298;49.246;9.410;2024-01-30T07:32:29;100873.66;;;-0.20
69186;BMP280;56298;49.246;9.410;2024-01-30T07:34:55;100866.84;;;-0.11
69186;BMP280;56298;49.246;9.410;2024-01-30T07:37:20;100872.09;;;-0.04
69186;BMP280;56298;49.246;9.410;2024-01-30T07:39:45;100871.50;;;-0.06
69186;BMP280;56298;49.246;9.410;2024-01-30T07:42:11;100875.97;;;-0.12
69186;BMP280;56298;49.246;9.410;2024-01-30T07:44:36;100862.50;;;0.00
69186;BMP280;56298;49.246;9.410;2024-01-30T07:47:01;100866.81;;;0.01
69186;BMP280;56298;49.246;9.410;2024-01-30T07:49:56;100864.69;;;0.03
69186;BMP280;56298;49.246;9.410;2024-01-30T07:52:21;100875.25;;;0.05
69186;BMP280;56298;49.246;9.410;2024-01-30T07:54:46;100870.66;;;0.17
69186;BMP280;56298;49.246;9.410;2024-01-30T07:57:11;100872.84;;;0.37
69186;BMP280;56298;49.246;9.410;2024-01-30T07:59:37;100867.03;;;0.58
69186;BMP280;56298;49.246;9.410;2024-01-30T08:02:02;100870.25;;;0.72
69186;BMP280;56298;49.246;9.410;2024-01-30T08:04:27;100877.19;;;0.68
69186;BMP280;56298;49.246;9.410;2024-01-30T08:06:52;100869.78;;;0.92
69186;BMP280;56298;49.246;9.410;2024-01-30T08:09:18;100881.38;;;1.10
69186;BMP280;56298;49.246;9.410;2024-01-30T08:11:43;100877.88;;;1.09
69186;BMP280;56298;49.246;9.410;2024-01-30T08:14:08;100884.06;;;1.27
69186;BMP280;56298;49.246;9.410;2024-01-30T08:16:34;100877.47;;;1.35
69186;BMP280;56298;49.246;9.410;2024-01-30T08:18:59;100885.81;;;1.55
69186;BMP280;56298;49.246;9.410;2024-01-30T08:21:24;100875.59;;;1.80
69186;BMP280;56298;49.246;9.410;2024-01-30T08:23:49;100875.94;;;2.11
69186;BMP280;56298;49.246;9.410;2024-01-30T08:26:15;100871.72;;;2.20
69186;BMP280;56298;49.246;9.410;2024-01-30T08:28:40;100877.56;;;2.34
69186;BMP280;56298;49.246;9.410;2024-01-30T08:31:05;100876.00;;;2.44
69186;BMP280;56298;49.246;9.410;2024-01-30T08:33:31;100869.44;;;2.67
69186;BMP280;56298;49.246;9.410;2024-01-30T08:35:56;100869.91;;;2.59
69186;BMP280;56298;49.246;9.410;2024-01-30T08:38:22;100873.59;;;2.80
69186;BMP280;56298;49.246;9.410;2024-01-30T08:40:47;100879.72;;;2.98
69186;BMP280;56298;49.246;9.410;2024-01-30T08:43:12;100880.53;;;3.03
69186;BMP280;56298;49.246;9.410;2024-01-30T08:45:37;100871.72;;;3.18
69186;BMP280;56298;49.246;9.410;2024-01-30T08:48:03;100878.56;;;3.26
69186;BMP280;56298;49.246;9.410;2024-01-30T08:50:28;100880.81;;;3.45
69186;BMP280;56298;49.246;9.410;2024-01-30T08:52:54;100880.75;;;3.35
69186;BMP280;56298;49.246;9.410;2024-01-30T08:55:20;100882.50;;;3.62
69186;BMP280;56298;49.246;9.410;2024-01-30T08:57:45;100882.88;;;3.81
69186;BMP280;56298;49.246;9.410;2024-01-30T09:00:11;100890.53;;;4.05
69186;BMP280;56298;49.246;9.410;2024-01-30T09:02:36;100888.94;;;4.19
69186;BMP280;56298;49.246;9.410;2024-01-30T09:05:01;100890.31;;;4.32
69186;BMP280;56298;49.246;9.410;2024-01-30T09:07:27;100899.28;;;4.53
69186;BMP280;56298;49.246;9.410;2024-01-30T09:09:52;100899.59;;;4.62
69186;BMP280;56298;49.246;9.410;2024-01-30T09:12:17;100885.44;;;4.71
69186;BMP280;56298;49.246;9.410;2024-01-30T09:14:43;100893.06;;;4.63
69186;BMP280;56298;49.246;9.410;2024-01-30T09:17:08;100901.50;;;4.62
69186;BMP280;56298;49.246;9.410;2024-01-30T09:19:33;100909.09;;;4.60
69186;BMP280;56298;49.246;9.410;2024-01-30T09:21:59;100910.19;;;4.85
69186;BMP280;56298;49.246;9.410;2024-01-30T09:24:25;100911.53;;;4.72
69186;BMP280;56298;49.246;9.410;2024-01-30T09:26:50;100922.41;;;4.82
69186;BMP280;56298;49.246;9.410;2024-01-30T09:29:15;100918.34;;;4.85
69186;BMP280;56298;49.246;9.410;2024-01-30T09:31:45;100919.94;;;5.01
69186;BMP280;56298;49.246;9.410;2024-01-30T09:34:10;100920.47;;;5.09
69186;BMP280;56298;49.246;9.410;2024-01-30T09:36:35;100925.63;;;5.20
69186;BMP280;56298;49.246;9.410;2024-01-30T09:39:00;100914.16;;;5.39
69186;BMP280;56298;49.246;9.410;2024-01-30T09:41:27;100925.56;;;5.46
69186;BMP280;56298;49.246;9.410;2024-01-30T09:43:54;100925.31;;;5.53
69186;BMP280;56298;49.246;9.410;2024-01-30T09:46:21;100921.16;;;5.66
69186;BMP280;56298;49.246;9.410;2024-01-30T09:48:46;100921.06;;;5.82
69186;BMP280;56298;49.246;9.410;2024-01-30T09:51:14;100914.00;;;5.81
69186;BMP280;56298;49.246;9.410;2024-01-30T09:53:40;100917.75;;;5.95
69186;BMP280;56298;49.246;9.410;2024-01-30T09:56:07;100922.56;;;6.09
69186;BMP280;56298;49.246;9.410;2024-01-30T09:58:32;100922.00;;;6.12
69186;BMP280;56298;49.246;9.410;2024-01-30T10:00:58;100915.22;;;6.04
69186;BMP280;56298;49.246;9.410;2024-01-30T10:03:23;100921.47;;;6.10
69186;BMP280;56298;49.246;9.410;2024-01-30T10:05:52;100908.38;;;6.12
69186;BMP280;56298;49.246;9.410;2024-01-30T10:08:20;100911.56;;;6.24
69186;BMP280;56298;49.246;9.410;2024-01-30T10:10:49;100911.31;;;6.21
69186;BMP280;56298;49.246;9.410;2024-01-30T10:13:15;100908.41;;;6.07
69186;BMP280;56298;49.246;9.410;2024-01-30T10:15:41;100906.78;;;6.06
69186;BMP280;56298;49.246;9.410;2024-01-30T10:18:06;100905.50;;;6.33
69186;BMP280;56298;49.246;9.410;2024-01-30T10:20:32;100911.06;;;6.22
69186;BMP280;56298;49.246;9.410;2024-01-30T10:22:58;100913.75;;;6.27
69186;BMP280;56298;49.246;9.410;2024-01-30T10:25:23;100913.91;;;6.41
69186;BMP280;56298;49.246;9.410;2024-01-30T10:27:53;100905.19;;;6.45
69186;BMP280;56298;49.246;9.410;2024-01-30T10:30:19;100895.25;;;6.59
69186;BMP280;56298;49.246;9.410;2024-01-30T10:32:44;100894.47;;;6.53
69186;BMP280;56298;49.246;9.410;2024-01-30T10:35:09;100900.84;;;6.73
69186;BMP280;56298;49.246;9.410;2024-01-30T10:37:35;100897.13;;;6.88
69186;BMP280;56298;49.246;9.410;2024-01-30T10:40:03;100893.03;;;6.91
69186;BMP280;56298;49.246;9.410;2024-01-30T10:42:32;100889.03;;;6.83
69186;BMP280;56298;49.246;9.410;2024-01-30T10:45:08;100884.91;;;6.86
69186;BMP280;56298;49.246;9.410;2024-01-30T10:47:36;100886.09;;;6.74
69186;BMP280;56298;49.246;9.410;2024-01-30T10:50:02;100889.78;;;6.89
69186;BMP280;56298;49.246;9.410;2024-01-30T10:52:31;100886.44;;;6.97
69186;BMP280;56298;49.246;9.410;2024-01-30T10:54:58;100884.03;;;6.90
69186;BMP280;56298;49.246;9.410;2024-01-30T10:57:23;100881.78;;;6.97
69186;BMP280;56298;49.246;9.410;2024-01-30T10:59:51;100883.75;;;6.92
69186;BMP280;56298;49.246;9.410;2024-01-30T11:02:18;100876.94;;;6.94
69186;BMP280;56298;49.246;9.410;2024-01-30T11:04:45;100880.31;;;7.05
69186;BMP280;56298;49.246;9.410;2024-01-30T11:07:18;100875.00;;;7.19
69186;BMP280;56298;49.246;9.410;2024-01-30T11:09:53;100891.25;;;7.30
69186;BMP280;56298;49.246;9.410;2024-01-30T11:12:25;100877.19;;;7.42
69186;BMP280;56298;49.246;9.410;2024-01-30T11:15:11;100881.47;;;7.48
69186;BMP280;56298;49.246;9.410;2024-01-30T11:20:27;100874.34;;;7.71
69186;BMP280;56298;49.246;9.410;2024-01-30T11:22:57;100873.53;;;7.71
69186;BMP280;56298;49.246;9.410;2024-01-30T11:25:23;100878.91;;;7.76
69186;BMP280;56298;49.246;9.410;2024-01-30T11:27:53;100879.66;;;7.82
69186;BMP280;56298;49.246;9.410;2024-01-30T11:33:01;100880.84;;;8.14
69186;BMP280;56298;49.246;9.410;2024-01-30T11:35:32;100870.28;;;8.07
69186;BMP280;56298;49.246;9.410;2024-01-30T11:37:58;100874.06;;;8.25
69186;BMP280;56298;49.246;9.410;2024-01-30T11:40:26;100867.13;;;8.33
69186;BMP280;56298;49.246;9.410;2024-01-30T11:42:56;100871.09;;;8.41
69186;BMP280;56298;49.246;9.410;2024-01-30T11:45:23;100867.13;;;8.33
69186;BMP280;56298;49.246;9.410;2024-01-30T11:47:48;100864.50;;;8.42
69186;BMP280;56298;49.246;9.410;2024-01-30T11:50:14;100872.38;;;8.29
69186;BMP280;56298;49.246;9.410;2024-01-30T11:52:40;100861.75;;;8.28
69186;BMP280;56298;49.246;9.410;2024-01-30T11:55:05;100864.09;;;8.34
69186;BMP280;56298;49.246;9.410;2024-01-30T11:57:31;100855.28;;;8.24
69186;BMP280;56298;49.246;9.410;2024-01-30T11:59:56;100857.75;;;8.39
69186;BMP280;56298;49.246;9.410;2024-01-30T12:02:21;100859.53;;;8.44
69186;BMP280;56298;49.246;9.410;2024-01-30T12:04:47;100858.38;;;8.50
69186;BMP280;56298;49.246;9.410;2024-01-30T12:07:12;100855.94;;;8.48
69186;BMP280;56298;49.246;9.410;2024-01-30T12:09:41;100846.13;;;8.47
69186;BMP280;56298;49.246;9.410;2024-01-30T12:12:06;100842.63;;;8.42
69186;BMP280;56298;49.246;9.410;2024-01-30T12:14:32;100832.75;;;8.46
69186;BMP280;56298;49.246;9.410;2024-01-30T12:16:57;100835.00;;;8.58
69186;BMP280;56298;49.246;9.410;2024-01-30T12:19:26;100831.50;;;8.52
69186;BMP280;56298;49.246;9.410;2024-01-30T12:21:56;100832.25;;;8.58
69186;BMP280;56298;49.246;9.410;2024-01-30T12:24:23;100831.56;;;8.66
69186;BMP280;56298;49.246;9.410;2024-01-30T12:26:49;100824.84;;;8.58
69186;BMP280;56298;49.246;9.410;2024-01-30T12:29:14;100828.41;;;8.73
69186;BMP280;56298;49.246;9.410;2024-01-30T12:31:42;100826.88;;;8.95
69186;BMP280;56298;49.246;9.410;2024-01-30T12:34:07;100816.56;;;8.77
69186;BMP280;56298;49.246;9.410;2024-01-30T12:36:33;100810.25;;;8.77
69186;BMP280;56298;49.246;9.410;2024-01-30T12:39:00;100817.66;;;8.90
69186;BMP280;56298;49.246;9.410;2024-01-30T12:41:25;100821.31;;;8.86
69186;BMP280;56298;49.246;9.410;2024-01-30T12:43:54;100826.78;;;8.86
69186;BMP280;56298;49.246;9.410;2024-01-30T12:46:21;100824.34;;;8.98
69186;BMP280;56298;49.246;9.410;2024-01-30T12:48:50;100828.31;;;8.92
69186;BMP280;56298;49.246;9.410;2024-01-30T12:51:15;100825.16;;;8.99
69186;BMP280;56298;49.246;9.410;2024-01-30T12:53:40;100821.59;;;8.98
69186;BMP280;56298;49.246;9.410;2024-01-30T12:56:05;100826.06;;;9.08
69186;BMP280;56298;49.246;9.410;2024-01-30T12:58:31;100829.22;;;9.15
69186;BMP280;56298;49.246;9.410;2024-01-30T13:00:56;100821.72;;;9.07
69186;BMP280;56298;49.246;9.410;2024-01-30T13:03:22;100825.66;;;9.15
69186;BMP280;56298;49.246;9.410;2024-01-30T13:05:47;100829.53;;;9.00
69186;BMP280;56298;49.246;9.410;2024-01-30T13:08:12;100825.66;;;9.15
69186;BMP280;56298;49.246;9.410;2024-01-30T13:10:37;100822.84;;;9.06
69186;BMP280;56298;49.246;9.410;2024-01-30T13:13:03;100820.91;;;9.21
69186;BMP280;56298;49.246;9.410;2024-01-30T13:15:28;100819.94;;;9.39
69186;BMP280;56298;49.246;9.410;2024-01-30T13:17:56;100818.31;;;9.38
69186;BMP280;56298;49.246;9.410;2024-01-30T13:20:21;100813.50;;;9.44
69186;BMP280;56298;49.246;9.410;2024-01-30T13:22:47;100815.00;;;9.27
69186;BMP280;56298;49.246;9.410;2024-01-30T13:25:16;100808.91;;;9.30
69186;BMP280;56298;49.246;9.410;2024-01-30T13:27:41;100805.50;;;9.11
69186;BMP280;56298;49.246;9.410;2024-01-30T13:30:07;100802.03;;;9.19
69186;BMP280;56298;49.246;9.410;2024-01-30T13:32:34;100804.47;;;9.21
69186;BMP280;56298;49.246;9.410;2024-01-30T13:34:59;100805.91;;;9.18
69186;BMP280;56298;49.246;9.410;2024-01-30T13:37:24;100807.94;;;9.12
69186;BMP280;56298;49.246;9.410;2024-01-30T13:39:50;100802.34;;;9.03
69186;BMP280;56298;49.246;9.410;2024-01-30T13:42:15;100811.69;;;9.02
69186;BMP280;56298;49.246;9.410;2024-01-30T13:44:40;100816.22;;;9.21
69186;BMP280;56298;49.246;9.410;2024-01-30T13:47:06;100815.13;;;9.08
69186;BMP280;56298;49.246;9.410;2024-01-30T13:49:31;100818.81;;;9.26
69186;BMP280;56298;49.246;9.410;2024-01-30T13:51:56;100816.31;;;9.30
69186;BMP280;56298;49.246;9.410;2024-01-30T13:54:21;100816.31;;;9.30
69186;BMP280;56298;49.246;9.410;2024-01-30T13:56:47;100807.59;;;9.28
69186;BMP280;56298;49.246;9.410;2024-01-30T13:59:12;100811.44;;;9.27
69186;BMP280;56298;49.246;9.410;2024-01-30T14:01:37;100820.91;;;9.21
69186;BMP280;56298;49.246;9.410;2024-01-30T14:04:03;100822.09;;;9.14